Time;durP1;ratioP1;P1;durP2;ratioP2;P2;SDS_P1;SDS_P2;PMS_P1;PMS_P2;Temp;Humidity;BMP_temperature;BMP_pressure;BME280_temperature;BME280_humidity;BME280_pressure;Samples;Min_cycle;Max_cycle;Signal;HPM_P1;HPM_P2
2021/12/15 00:01:04;;;;;;;87.88;30.30;;;;;;;6.66;100.00;101357.25;5034108;28;20155;-76
2021/12/15 00:03:30;;;;;;;86.38;29.58;;;;;;;6.66;100.00;101349.31;5032816;28;20028;-76
2021/12/15 00:05:55;;;;;;;75.88;27.70;;;;;;;6.77;100.00;101355.56;5032757;28;20018;-75
2021/12/15 00:08:21;;;;;;;83.95;30.13;;;;;;;6.67;100.00;101353.75;5034169;28;20032;-76
2021/12/15 00:10:48;;;;;;;86.53;30.45;;;;;;;6.70;100.00;101337.84;5033912;28;20044;-75
2021/12/15 00:13:16;;;;;;;82.22;30.02;;;;;;;6.63;100.00;101338.66;5032648;28;20029;-75
2021/12/15 00:15:44;;;;;;;87.75;31.20;;;;;;;6.62;100.00;101340.47;5033823;28;20025;-76
2021/12/15 00:18:09;;;;;;;90.03;32.40;;;;;;;6.69;100.00;101346.66;5032385;28;20044;-76
2021/12/15 00:20:36;;;;;;;97.00;32.42;;;;;;;6.63;100.00;101339.56;5032455;28;20478;-75
2021/12/15 00:23:02;;;;;;;108.32;34.88;;;;;;;6.69;100.00;101336.06;5034003;28;20085;-76
2021/12/15 00:25:32;;;;;;;113.13;34.45;;;;;;;6.81;100.00;101346.69;5033722;28;20026;-76
2021/12/15 00:27:58;;;;;;;107.22;34.90;;;;;;;6.71;100.00;101344.91;5032296;28;20063;-76
2021/12/15 00:30:23;;;;;;;116.88;36.30;;;;;;;6.65;100.00;101351.06;5034134;28;20481;-75
2021/12/15 00:32:50;;;;;;;113.88;34.30;;;;;;;6.77;100.00;101344.94;5034076;28;20502;-75
2021/12/15 00:35:16;;;;;;;98.43;33.67;;;;;;;6.66;100.00;101347.53;5033607;28;20108;-75
2021/12/15 00:37:41;;;;;;;93.95;33.08;;;;;;;6.66;100.00;101349.31;5033383;28;20112;-75
2021/12/15 00:40:12;;;;;;;103.28;32.95;;;;;;;6.68;100.00;101348.44;5033376;28;20021;-76
2021/12/15 00:42:37;;;;;;;86.68;31.00;;;;;;;6.71;100.00;101344.91;5032122;28;20086;-76
2021/12/15 00:45:04;;;;;;;90.03;32.05;;;;;;;6.68;100.00;101351.09;5033425;28;20033;-76
2021/12/15 00:47:29;;;;;;;83.78;30.80;;;;;;;6.73;100.00;101348.44;5031913;28;20024;-76
2021/12/15 00:49:55;;;;;;;80.13;29.40;;;;;;;6.67;100.00;101349.31;5031945;28;20398;-75
2021/12/15 00:52:20;;;;;;;68.22;27.50;;;;;;;6.81;100.00;101353.78;5032060;28;20036;-76
2021/12/15 00:54:46;;;;;;;69.03;28.10;;;;;;;6.66;100.00;101346.66;5031986;28;20389;-76
2021/12/15 00:57:11;;;;;;;65.85;27.33;;;;;;;6.77;100.00;101349.34;5033759;28;20030;-75
2021/12/15 00:59:37;;;;;;;66.05;26.20;;;;;;;6.76;100.00;101343.16;5033161;28;20026;-76
2021/12/15 01:02:05;;;;;;;65.20;25.05;;;;;;;6.76;100.00;101343.16;5033464;28;20021;-76
2021/12/15 01:04:30;;;;;;;53.70;23.20;;;;;;;6.82;100.00;101339.63;5033290;28;20025;-75
2021/12/15 01:06:59;;;;;;;65.88;25.63;;;;;;;6.71;100.00;101339.59;5032402;28;20075;-75
2021/12/15 01:09:37;;;;;;;75.32;26.98;;;;;;;6.80;100.00;101352.88;5032805;28;20022;-75
2021/12/15 01:20:30;;;;;;;87.35;29.98;;;;;;;6.78;100.00;101340.47;5033425;28;20036;-75
2021/12/15 01:23:01;;;;;;;74.85;27.70;;;;;;;6.85;100.00;101341.41;5033294;28;20047;-76
2021/12/15 01:25:32;;;;;;;74.47;27.85;;;;;;;6.86;100.00;101351.13;5033211;28;20035;-75
2021/12/15 01:27:59;;;;;;;69.97;29.05;;;;;;;6.92;100.00;101351.16;5032905;28;20475;-75
2021/12/15 01:30:28;;;;;;;71.65;27.38;;;;;;;6.84;100.00;101360.84;5032971;28;20112;-75
2021/12/15 01:32:55;;;;;;;69.18;27.48;;;;;;;6.80;100.00;101352.03;5033114;28;20036;-76
2021/12/15 01:35:21;;;;;;;73.13;27.67;;;;;;;6.87;100.00;101350.25;5033008;28;20029;-75
2021/12/15 01:37:48;;;;;;;73.03;27.45;;;;;;;6.85;100.00;101357.34;5032752;28;20033;-76
2021/12/15 01:40:23;;;;;;;67.10;25.50;;;;;;;6.95;100.00;101353.81;5032747;28;20021;-76
2021/12/15 01:42:48;;;;;;;68.50;26.33;;;;;;;6.92;100.00;101353.81;5033034;28;20405;-75
2021/12/15 01:48:10;;;;;;;64.13;25.58;;;;;;;6.88;100.00;101358.22;5033029;28;20024;-76
2021/12/15 01:50:35;;;;;;;63.22;26.75;;;;;;;6.82;100.00;101363.53;5032855;28;20033;-76
2021/12/15 01:53:01;;;;;;;68.60;26.67;;;;;;;6.87;100.00;101355.56;5032696;28;20470;-75
2021/12/15 01:55:27;;;;;;;72.03;26.55;;;;;;;6.86;100.00;101364.41;5032928;28;20021;-75
2021/12/15 01:57:55;;;;;;;65.57;25.63;;;;;;;6.87;100.00;101351.16;5032913;28;20029;-76
2021/12/15 02:00:28;;;;;;;58.90;25.20;;;;;;;6.91;100.00;101352.91;5032903;28;20500;-76
2021/12/15 02:02:56;;;;;;;63.20;24.88;;;;;;;6.91;100.00;101360.88;5031376;28;20076;-75
2021/12/15 02:05:23;;;;;;;60.90;26.20;;;;;;;6.87;100.00;101350.25;5032617;28;20437;-75
2021/12/15 02:07:49;;;;;;;58.63;24.27;;;;;;;6.92;100.00;101359.13;5032879;28;20076;-75
2021/12/15 02:10:20;;;;;;;56.30;24.05;;;;;;;6.89;100.00;101349.38;5031182;28;20021;-76
2021/12/15 02:12:46;;;;;;;53.20;24.00;;;;;;;6.98;100.00;101353.84;5032556;28;20036;-75
2021/12/15 02:15:16;;;;;;;61.47;25.58;;;;;;;7.01;100.00;101358.25;5032536;28;20025;-75
2021/12/15 02:17:43;;;;;;;60.58;26.23;;;;;;;7.04;100.00;101353.81;5032632;28;20416;-76
2021/12/15 02:20:11;;;;;;;63.72;26.70;;;;;;;6.88;100.00;101352.03;5033454;28;20521;-74
2021/12/15 02:22:36;;;;;;;69.35;28.05;;;;;;;7.05;100.00;101354.72;5036529;28;20152;-75
2021/12/15 02:25:06;;;;;;;62.83;27.80;;;;;;;6.97;100.00;101357.34;5035956;28;20535;-75
2021/12/15 02:27:34;;;;;;;69.03;28.83;;;;;;;7.00;100.00;101354.72;5035882;28;20072;-76
2021/12/15 02:30:18;;;;;;;74.32;28.83;;;;;;;6.94;100.00;101357.34;5034540;28;20025;-76
2021/12/15 02:33:38;;;;;;;76.43;30.23;;;;;;;6.93;100.00;101356.44;5036075;28;20079;-75
2021/12/15 02:38:30;;;;;;;65.57;28.67;;;;;;;7.05;100.00;101357.38;5036151;28;20036;-76
2021/12/15 02:41:04;;;;;;;73.60;29.65;;;;;;;7.00;100.00;101356.47;5035683;28;20033;-75
2021/12/15 02:43:30;;;;;;;75.57;30.50;;;;;;;6.96;100.00;101360.88;5035555;28;20086;-75
2021/12/15 02:45:55;;;;;;;78.18;32.65;;;;;;;6.95;100.00;101353.81;5035828;28;20108;-76
2021/12/15 02:48:20;;;;;;;79.35;30.80;;;;;;;6.96;100.00;101352.06;5035642;28;20017;-76
2021/12/15 02:50:45;;;;;;;72.80;28.95;;;;;;;7.10;100.00;101358.28;5035715;28;20037;-76
2021/12/15 02:53:11;;;;;;;78.15;29.70;;;;;;;6.98;100.00;101353.84;5035429;28;20021;-75
2021/12/15 02:55:37;;;;;;;75.50;31.02;;;;;;;6.94;100.00;101354.69;5035603;28;20070;-75
2021/12/15 02:58:03;;;;;;;73.57;28.52;;;;;;;7.05;100.00;101354.72;5035308;28;20025;-75
2021/12/15 03:00:47;;;;;;;78.85;29.65;;;;;;;6.95;100.00;101351.16;5035241;28;20029;-75
2021/12/15 03:06:25;;;;;;;69.72;29.33;;;;;;;7.00;100.00;101360.03;5035523;28;20091;-75
2021/12/15 03:08:54;;;;;;;73.35;28.73;;;;;;;6.99;100.00;101344.06;5034582;28;20124;-75
2021/12/15 03:16:50;;;;;;;87.03;32.80;;;;;;;6.96;100.00;101344.94;5035342;28;20055;-75
2021/12/15 03:19:15;;;;;;;89.80;33.85;;;;;;;7.04;100.00;101351.19;5034865;28;20478;-75
2021/12/15 03:21:41;;;;;;;96.43;35.28;;;;;;;7.00;100.00;101349.41;5034895;28;20457;-75
2021/12/15 03:24:15;;;;;;;95.88;35.70;;;;;;;7.06;100.00;101342.34;5033584;28;20021;-76
2021/12/15 03:26:50;;;;;;;98.78;36.65;;;;;;;6.99;100.00;101349.38;5033538;28;20026;-76
2021/12/15 03:37:25;;;;;;;103.80;38.97;;;;;;;7.08;100.00;101354.72;5035186;28;20033;-75
2021/12/15 03:40:00;;;;;;;104.78;38.33;;;;;;;7.02;100.00;101358.25;5034480;28;20101;-76
2021/12/15 03:42:30;;;;;;;108.70;39.80;;;;;;;6.94;100.00;101352.03;5033152;28;20091;-76
2021/12/15 03:44:57;;;;;;;110.47;38.47;;;;;;;6.94;100.00;101357.34;5034457;28;20026;-76
2021/12/15 03:47:30;;;;;;;109.97;40.35;;;;;;;7.04;100.00;101353.81;5034310;28;20025;-75
2021/12/15 03:49:57;;;;;;;113.43;40.10;;;;;;;6.95;100.00;101359.13;5034191;28;20029;-75
2021/12/15 03:52:23;;;;;;;106.30;42.00;;;;;;;6.89;100.00;101356.44;5034556;28;20474;-75
2021/12/15 03:54:49;;;;;;;104.85;37.88;;;;;;;6.91;100.00;101360.00;5034341;28;20025;-75
2021/12/15 03:57:15;;;;;;;106.47;38.47;;;;;;;6.89;100.00;101361.75;5034109;28;20437;-75
2021/12/15 03:59:43;;;;;;;96.20;37.58;;;;;;;6.89;100.00;101354.69;5034205;28;20025;-76
2021/12/15 04:02:11;;;;;;;108.72;37.97;;;;;;;6.95;100.00;101361.78;5034086;28;20036;-75
2021/12/15 04:04:37;;;;;;;107.18;39.75;;;;;;;6.92;100.00;101361.78;5032802;28;20029;-76
2021/12/15 04:07:03;;;;;;;93.82;36.42;;;;;;;7.00;100.00;101349.41;5034056;28;20025;-76
2021/12/15 04:09:29;;;;;;;122.65;41.85;;;;;;;6.87;100.00;101356.47;5033975;28;20022;-76
2021/12/15 04:11:55;;;;;;;109.85;40.88;;;;;;;6.90;100.00;101363.53;5033881;28;20022;-76
2021/12/15 04:14:28;;;;;;;113.82;40.35;;;;;;;6.96;100.00;101360.88;5033983;28;20037;-75
2021/12/15 04:17:05;;;;;;;118.97;40.65;;;;;;;6.93;100.00;101364.41;5034101;28;20110;-75
2021/12/15 04:19:33;;;;;;;113.07;40.35;;;;;;;7.01;100.00;101367.09;5033739;28;20025;-76
2021/12/15 04:21:59;;;;;;;118.22;41.75;;;;;;;6.91;100.00;101368.84;5033762;28;20033;-75
2021/12/15 04:24:27;;;;;;;128.20;44.15;;;;;;;6.80;100.00;101374.13;5032424;28;20067;-76
2021/12/15 04:26:54;;;;;;;129.70;43.38;;;;;;;6.85;100.00;101362.66;5033696;28;20124;-75
2021/12/15 04:29:19;;;;;;;128.93;43.13;;;;;;;6.85;100.00;101373.25;5033843;28;20112;-76
2021/12/15 04:31:51;;;;;;;124.18;45.15;;;;;;;6.86;100.00;101369.72;5032404;28;20112;-75
2021/12/15 04:34:17;;;;;;;128.25;42.83;;;;;;;6.89;100.00;101369.72;5033529;28;20439;-76
2021/12/15 04:36:45;;;;;;;124.05;41.70;;;;;;;6.95;100.00;101368.88;5033695;28;20465;-76
2021/12/15 04:39:12;;;;;;;136.93;44.42;;;;;;;6.80;100.00;101370.59;5033331;28;20112;-75
2021/12/15 04:41:40;;;;;;;139.50;45.13;;;;;;;6.77;100.00;101376.78;5033350;28;20029;-75
2021/12/15 04:44:10;;;;;;;144.48;45.78;;;;;;;6.80;100.00;101375.91;5031711;28;20116;-75
2021/12/15 04:46:39;;;;;;;143.43;45.83;;;;;;;6.79;100.00;101375.03;5032153;28;20024;-76
2021/12/15 04:49:07;;;;;;;141.45;45.63;;;;;;;6.77;100.00;101376.78;5033380;28;20029;-76
2021/12/15 04:51:32;;;;;;;148.40;46.42;;;;;;;6.77;100.00;101375.88;5033230;28;20486;-76
2021/12/15 04:53:58;;;;;;;146.50;47.30;;;;;;;6.80;100.00;101371.47;5033757;28;20071;-76
2021/12/15 04:56:25;;;;;;;123.72;43.50;;;;;;;6.81;100.00;101367.94;5033198;28;20030;-76
2021/12/15 04:58:53;;;;;;;143.13;44.75;;;;;;;6.77;100.00;101370.59;5033146;28;20025;-75
2021/12/15 05:01:19;;;;;;;135.00;44.40;;;;;;;6.75;100.00;101367.91;5033522;28;20381;-76
2021/12/15 05:03:45;;;;;;;129.90;43.33;;;;;;;6.77;100.00;101373.22;5033347;28;20497;-76
2021/12/15 05:06:10;;;;;;;130.65;42.25;;;;;;;6.71;100.00;101371.44;5032010;28;20033;-76
2021/12/15 05:08:37;;;;;;;135.07;43.80;;;;;;;6.70;100.00;101370.53;5033129;28;20085;-75
2021/12/15 05:11:05;;;;;;;138.52;43.83;;;;;;;6.70;100.00;101372.34;5033145;28;20026;-76
2021/12/15 05:13:32;;;;;;;123.50;38.47;;;;;;;6.69;100.00;101370.56;5032906;28;20378;-76
2021/12/15 05:15:59;;;;;;;128.60;41.70;;;;;;;6.73;100.00;101374.09;5033041;28;20029;-75
2021/12/15 05:18:24;;;;;;;128.85;41.95;;;;;;;6.75;100.00;101380.31;5032889;28;20045;-76
2021/12/15 05:20:52;;;;;;;117.18;40.97;;;;;;;6.82;100.00;101390.97;5033007;28;20033;-76
2021/12/15 05:23:18;;;;;;;110.53;37.00;;;;;;;6.84;100.00;101388.31;5033063;28;20475;-76
2021/12/15 05:25:45;;;;;;;112.15;38.65;;;;;;;6.89;100.00;101396.28;5032972;28;20477;-76
2021/12/15 05:28:10;;;;;;;110.25;38.58;;;;;;;6.85;100.00;101398.06;5032871;28;20029;-76
2021/12/15 05:30:37;;;;;;;108.80;39.65;;;;;;;6.78;100.00;101394.47;5031709;28;20108;-76
2021/12/15 05:33:03;;;;;;;103.80;38.97;;;;;;;6.76;100.00;101393.59;5032874;28;20036;-76
2021/12/15 05:35:29;;;;;;;104.15;38.45;;;;;;;6.78;100.00;101405.09;5031596;28;20026;-74
2021/12/15 05:37:58;;;;;;;107.00;38.42;;;;;;;6.79;100.00;101405.97;5031459;28;20033;-75
2021/12/15 05:40:25;;;;;;;108.22;38.67;;;;;;;6.82;100.00;101406.88;5033069;28;20128;-76
2021/12/15 05:42:51;;;;;;;103.65;36.65;;;;;;;6.91;100.00;101413.09;5046223;22;20049;-85
2021/12/15 05:45:19;;;;;;;101.90;39.33;;;;;;;6.81;100.00;101405.09;5035963;28;20112;-84
2021/12/15 05:47:44;;;;;;;101.30;37.65;;;;;;;6.85;100.00;101410.44;5036015;28;20053;-85
2021/12/15 05:50:13;;;;;;;114.97;39.38;;;;;;;6.78;100.00;101410.41;5035301;28;20022;-85
2021/12/15 05:52:44;;;;;;;113.82;39.70;;;;;;;6.78;100.00;101415.69;5037743;28;20032;-84
2021/12/15 05:55:12;;;;;;;116.20;39.72;;;;;;;6.78;100.00;101420.13;5038267;28;20091;-84
2021/12/15 05:57:38;;;;;;;104.53;39.05;;;;;;;6.79;100.00;101417.50;5039814;28;20037;-84
2021/12/15 06:00:11;;;;;;;110.63;41.28;;;;;;;6.79;100.00;101417.50;5039615;28;20036;-85
2021/12/15 06:02:37;;;;;;;114.10;39.40;;;;;;;6.81;100.00;101417.47;5040003;28;20441;-83
2021/12/15 06:05:03;;;;;;;115.88;41.40;;;;;;;6.78;100.00;101414.81;5040310;28;20482;-84
2021/12/15 06:07:28;;;;;;;109.70;40.60;;;;;;;6.74;100.00;101413.03;5041518;28;20049;-84
2021/12/15 06:09:54;;;;;;;121.15;41.58;;;;;;;6.74;100.00;101418.34;5042562;28;20029;-84
2021/12/15 06:12:19;;;;;;;126.78;41.40;;;;;;;6.72;100.00;101414.81;5040801;28;20458;-84
2021/12/15 06:14:44;;;;;;;120.22;41.13;;;;;;;6.69;100.00;101420.97;5040334;28;20021;-83
2021/12/15 06:17:11;;;;;;;120.25;42.25;;;;;;;6.71;100.00;101424.53;5039760;28;20417;-83
2021/12/15 06:19:37;;;;;;;118.95;41.63;;;;;;;6.67;100.00;101425.41;5035723;28;20030;-83
2021/12/15 06:22:05;;;;;;;110.63;39.10;;;;;;;6.71;100.00;101419.22;5036369;28;20061;-83
2021/12/15 06:24:36;;;;;;;113.70;41.40;;;;;;;6.62;100.00;101425.38;5036630;28;20557;-83
2021/12/15 06:27:07;;;;;;;108.00;39.90;;;;;;;6.62;100.00;101424.50;5038417;28;20029;-83
2021/12/15 06:29:33;;;;;;;109.00;40.85;;;;;;;6.66;100.00;101423.63;5039728;28;20445;-84
2021/12/15 06:31:59;;;;;;;97.13;36.13;;;;;;;6.71;100.00;101435.16;5040127;28;20541;-83
2021/12/15 06:34:24;;;;;;;101.20;37.42;;;;;;;6.64;100.00;101434.25;5040659;28;20025;-84
2021/12/15 06:36:49;;;;;;;102.15;37.28;;;;;;;6.64;100.00;101433.34;5041416;28;20104;-84
2021/12/15 06:39:15;;;;;;;93.15;37.67;;;;;;;6.62;100.00;101429.81;5040606;28;20391;-84
2021/12/15 06:41:40;;;;;;;98.18;38.67;;;;;;;6.61;100.00;101433.31;5040405;28;20044;-82
2021/12/15 06:44:05;;;;;;;91.45;36.10;;;;;;;6.62;100.00;101429.81;5040257;28;20029;-83
2021/12/15 07:00:11;;;;;;;73.00;31.13;;;;;;;6.63;100.00;101442.19;5037663;28;20573;-83
2021/12/15 07:02:42;;;;;;;80.45;31.33;;;;;;;6.62;100.00;101440.41;5037754;28;20390;-83
2021/12/15 07:05:09;;;;;;;76.88;30.08;;;;;;;6.54;100.00;101441.28;5042095;28;20026;-84
2021/12/15 07:07:46;;;;;;;80.10;31.33;;;;;;;6.58;100.00;101456.31;5042126;28;20045;-84
2021/12/15 07:10:14;;;;;;;82.03;33.47;;;;;;;6.56;100.00;101449.22;5046132;28;20037;-83
2021/12/15 07:12:40;;;;;;;82.25;31.35;;;;;;;6.58;100.00;101456.31;5046454;28;20545;-82
2021/12/15 07:15:07;;;;;;;84.90;33.17;;;;;;;6.56;100.00;101455.44;5046673;28;20033;-83
2021/12/15 07:17:35;;;;;;;89.55;34.28;;;;;;;6.55;100.00;101445.69;5045162;28;20489;-82
2021/12/15 07:22:36;;;;;;;99.57;35.47;;;;;;;6.57;100.00;101464.28;5046857;28;20434;-82
2021/12/15 07:25:05;;;;;;;91.70;35.60;;;;;;;6.56;100.00;101463.41;5045503;28;20486;-83
2021/12/15 07:27:30;;;;;;;100.75;36.17;;;;;;;6.56;100.00;101468.69;5045611;28;20032;-83
2021/12/15 07:29:56;;;;;;;102.28;38.28;;;;;;;6.62;100.00;101466.97;5047205;28;20025;-83
2021/12/15 07:32:21;;;;;;;99.72;35.65;;;;;;;6.61;100.00;101463.41;5040272;28;20025;-83
2021/12/15 07:34:46;;;;;;;103.35;37.15;;;;;;;6.57;100.00;101470.47;5039653;28;20044;-83
2021/12/15 07:37:12;;;;;;;98.00;35.47;;;;;;;6.61;100.00;101470.47;5041419;28;20061;-83
2021/12/15 07:39:38;;;;;;;120.60;38.83;;;;;;;6.57;100.00;101470.47;5039971;28;20040;-83
2021/12/15 07:42:10;;;;;;;111.70;39.88;;;;;;;6.56;100.00;101474.00;5042225;28;20029;-83
2021/12/15 07:44:36;;;;;;;117.32;38.83;;;;;;;6.58;100.00;101469.59;5042144;28;20048;-83
2021/12/15 07:47:03;;;;;;;112.03;38.80;;;;;;;6.63;100.00;101476.69;5043016;28;20029;-83
2021/12/15 07:49:29;;;;;;;120.22;39.30;;;;;;;6.63;100.00;101476.69;5045844;28;20008;-84
2021/12/15 07:52:04;;;;;;;109.15;37.88;;;;;;;6.68;100.00;101485.56;5050053;28;20116;-82
2021/12/15 07:54:33;;;;;;;106.10;37.30;;;;;;;6.62;100.00;101482.88;5049895;28;20029;-83
2021/12/15 07:57:01;;;;;;;127.03;39.47;;;;;;;6.61;100.00;101486.41;5050484;28;20104;-84
2021/12/15 07:59:26;;;;;;;105.38;36.17;;;;;;;6.63;100.00;101479.34;5048215;28;20021;-83
2021/12/15 08:01:52;;;;;;;116.15;37.67;;;;;;;6.65;100.00;101488.22;5048415;28;20051;-84
2021/12/15 08:04:21;;;;;;;111.85;37.47;;;;;;;6.67;100.00;101486.47;5048796;28;20044;-83
2021/12/15 08:06:46;;;;;;;115.97;37.55;;;;;;;6.66;100.00;101485.56;5047690;28;20030;-82
2021/12/15 08:09:13;;;;;;;107.57;37.65;;;;;;;6.66;100.00;101484.66;5044071;28;20036;-83
2021/12/15 08:11:40;;;;;;;104.13;36.72;;;;;;;6.73;100.00;101481.16;5037374;28;20029;-82
2021/12/15 08:14:05;;;;;;;102.53;36.88;;;;;;;6.68;100.00;101485.56;5038299;28;20108;-84
2021/12/15 08:16:30;;;;;;;103.22;36.10;;;;;;;6.68;100.00;101493.53;5046794;28;20461;-84
2021/12/15 08:18:58;;;;;;;102.55;37.05;;;;;;;6.69;100.00;101490.91;5047062;28;20093;-83
2021/12/15 08:21:24;;;;;;;105.10;34.30;;;;;;;6.72;100.00;101491.78;5050769;28;20036;-83
2021/12/15 08:23:49;;;;;;;105.25;37.97;;;;;;;6.73;100.00;101491.78;5052268;28;20030;-83
2021/12/15 08:26:14;;;;;;;106.18;38.33;;;;;;;6.70;100.00;101487.34;5050703;28;20044;-84
2021/12/15 08:28:47;;;;;;;109.55;36.30;;;;;;;6.79;100.00;101481.22;5048837;28;20048;-85
2021/12/15 08:31:12;;;;;;;113.10;36.83;;;;;;;6.77;100.00;101487.38;5047503;28;20029;-85
2021/12/15 08:33:38;;;;;;;104.85;36.45;;;;;;;6.82;100.00;101485.66;5049270;28;20513;-84
2021/12/15 08:36:07;;;;;;;113.93;37.03;;;;;;;6.78;100.00;101495.34;5044515;28;20099;-83
2021/12/15 08:38:36;;;;;;;114.38;36.97;;;;;;;6.75;100.00;101495.31;5044135;28;20045;-83
2021/12/15 08:41:07;;;;;;;114.65;37.88;;;;;;;6.74;100.00;101496.22;5044146;28;20018;-84
2021/12/15 08:43:33;;;;;;;116.13;38.47;;;;;;;6.74;100.00;101488.25;5045784;28;20029;-83
2021/12/15 08:46:04;;;;;;;124.75;39.25;;;;;;;6.77;100.00;101490.94;5044950;28;20029;-82
2021/12/15 08:48:30;;;;;;;110.78;37.90;;;;;;;6.77;100.00;101482.97;5036059;28;20017;-84
2021/12/15 08:50:55;;;;;;;119.20;39.40;;;;;;;6.82;100.00;101494.50;5039133;28;20386;-84
2021/12/15 08:53:22;;;;;;;117.03;40.20;;;;;;;6.80;100.00;101501.53;5039382;28;20026;-83
2021/12/15 08:55:49;;;;;;;119.78;40.22;;;;;;;6.80;100.00;101498.03;5038974;28;20493;-83
2021/12/15 08:58:18;;;;;;;124.32;43.85;;;;;;;6.81;100.00;101511.31;5039694;28;20076;-83
2021/12/15 09:00:45;;;;;;;112.60;38.45;;;;;;;6.91;100.00;101506.03;5040945;28;20017;-83
2021/12/15 09:03:14;;;;;;;111.47;36.50;;;;;;;6.86;100.00;101507.78;5041821;28;20549;-83
2021/12/15 09:05:41;;;;;;;113.82;37.92;;;;;;;6.87;100.00;101514.88;5042646;28;20128;-84
2021/12/15 09:08:08;;;;;;;109.55;37.05;;;;;;;6.89;100.00;101514.00;5044609;28;20040;-84
2021/12/15 09:10:36;;;;;;;115.50;37.22;;;;;;;6.89;100.00;101523.72;5044292;28;20029;-84
2021/12/15 09:13:03;;;;;;;109.57;35.85;;;;;;;6.91;100.00;101517.53;5044368;28;20108;-84
2021/12/15 09:15:28;;;;;;;111.30;36.10;;;;;;;6.89;100.00;101523.72;5044922;28;20470;-84
2021/12/15 09:17:57;;;;;;;121.03;40.72;;;;;;;6.87;100.00;101520.19;5043305;28;20029;-84
2021/12/15 09:20:27;;;;;;;112.80;38.17;;;;;;;6.93;100.00;101515.78;5044631;28;20025;-84
2021/12/15 09:22:54;;;;;;;123.00;38.38;;;;;;;6.94;100.00;101524.63;5043683;28;20033;-84
2021/12/15 09:25:19;;;;;;;119.63;37.95;;;;;;;6.89;100.00;101529.03;5037095;28;20466;-83
2021/12/15 09:27:48;;;;;;;125.40;39.03;;;;;;;6.89;100.00;101519.31;5040221;28;20028;-84
2021/12/15 09:30:21;;;;;;;126.07;38.53;;;;;;;6.94;100.00;101529.94;5044671;28;20044;-84
2021/12/15 09:32:47;;;;;;;;;;;;;;;6.93;100.00;101525.53;5046623;28;20033;-84
2021/12/15 09:35:16;;;;;;;116.47;37.00;;;;;;;6.98;100.00;101536.19;5047672;28;19931;-84
2021/12/15 09:37:41;;;;;;;117.20;36.97;;;;;;;6.96;100.00;101536.16;5047283;28;20030;-83
2021/12/15 09:40:09;;;;;;;109.13;36.00;;;;;;;6.96;100.00;101543.25;5046742;28;20076;-84
2021/12/15 09:42:38;;;;;;;129.73;39.25;;;;;;;6.96;100.00;101541.47;5047580;28;20025;-84
2021/12/15 09:45:37;;;;;;;126.30;38.65;;;;;;;6.96;100.00;101541.47;5048112;28;20025;-84
2021/12/15 09:56:22;;;;;;;118.10;38.40;;;;;;;6.99;100.00;101540.59;5048076;28;20017;-84
2021/12/15 10:02:09;;;;;;;135.48;40.35;;;;;;;6.99;100.00;101545.91;5043896;28;20536;-84
2021/12/15 10:05:18;;;;;;;137.07;41.10;;;;;;;7.00;100.00;101542.38;5041700;28;20452;-82
2021/12/15 10:10:43;;;;;;;136.25;42.03;;;;;;;6.99;100.00;101541.50;5050880;28;20091;-84
2021/12/15 10:19:40;;;;;;;126.85;39.35;;;;;;;7.05;100.00;101530.00;5050693;28;20444;-85
2021/12/15 10:22:36;;;;;;;143.60;41.72;;;;;;;7.06;100.00;101538.88;5049305;28;20026;-84
2021/12/15 10:25:14;;;;;;;123.72;38.42;;;;;;;7.11;100.00;101534.47;5049094;28;20033;-84
2021/12/15 10:27:57;;;;;;;130.85;39.15;;;;;;;7.13;100.00;101538.91;5049196;28;20029;-82
2021/12/15 10:30:38;;;;;;;130.88;40.63;;;;;;;7.12;100.00;101537.13;5047869;28;20028;-84
2021/12/15 10:33:08;;;;;;;110.55;37.15;;;;;;;7.15;100.00;101537.16;5048408;28;20482;-84
2021/12/15 10:35:42;;;;;;;105.50;35.80;;;;;;;7.12;100.00;101536.22;5049197;28;20116;-82
2021/12/15 10:38:18;;;;;;;104.28;35.70;;;;;;;7.13;100.00;101538.03;5044051;28;20029;-84
2021/12/15 10:41:09;;;;;;;105.72;36.45;;;;;;;7.22;100.00;101538.03;5036732;28;20397;-84
2021/12/15 10:43:50;;;;;;;97.47;36.30;;;;;;;7.15;100.00;101541.56;5038928;28;20029;-83
2021/12/15 10:46:23;;;;;;;104.55;35.97;;;;;;;7.17;100.00;101530.94;5040393;28;20033;-84
2021/12/15 10:49:16;;;;;;;106.68;36.72;;;;;;;7.17;100.00;101529.16;5041020;28;20029;-84
2021/12/15 10:51:44;;;;;;;102.97;35.22;;;;;;;7.25;100.00;101524.78;5041951;28;20405;-84
2021/12/15 10:54:18;;;;;;;101.97;35.33;;;;;;;7.26;100.00;101521.25;5044475;28;20033;-84
2021/12/15 10:56:49;;;;;;;88.65;34.50;;;;;;;7.26;100.00;101534.53;5044176;28;20022;-84
2021/12/15 10:59:15;;;;;;;93.57;33.88;;;;;;;7.32;100.00;101533.66;5045496;28;20099;-84
2021/12/15 11:01:43;;;;;;;86.60;32.53;;;;;;;7.31;100.00;101528.34;5044005;28;20029;-84
2021/12/15 11:04:26;;;;;;;90.95;33.72;;;;;;;7.30;100.00;101526.56;5044563;28;20028;-84
2021/12/15 11:07:08;;;;;;;107.07;36.85;;;;;;;7.30;100.00;101523.91;5046825;28;20029;-83
2021/12/15 11:09:40;;;;;;;89.15;34.20;;;;;;;7.30;100.00;101532.75;5044959;28;20018;-84
2021/12/15 11:12:13;;;;;;;88.13;32.97;;;;;;;7.32;100.00;101532.78;5046951;28;20025;-84
2021/12/15 11:14:41;;;;;;;95.20;34.25;;;;;;;7.37;100.00;101531.03;5043537;28;20029;-84
2021/12/15 11:17:23;;;;;;;90.47;33.38;;;;;;;7.37;100.00;101531.03;5036464;28;20509;-83
2021/12/15 11:19:55;;;;;;;87.72;35.00;;;;;;;7.33;100.00;101524.81;5039547;28;20096;-84
2021/12/15 11:22:47;;;;;;;90.43;34.20;;;;;;;7.35;100.00;101522.16;5040737;28;20025;-83
2021/12/15 11:25:35;;;;;;;86.90;35.15;;;;;;;7.37;100.00;101517.75;5043177;28;20021;-83
2021/12/15 11:28:23;;;;;;;84.60;33.33;;;;;;;7.37;100.00;101529.25;5038521;28;20083;-84
2021/12/15 11:31:08;;;;;;;75.35;31.40;;;;;;;7.43;100.00;101525.72;5042558;28;20072;-83
2021/12/15 11:33:37;;;;;;;86.68;34.75;;;;;;;7.43;100.00;101525.72;5040894;28;20026;-83
2021/12/15 11:36:14;;;;;;;82.75;32.05;;;;;;;7.53;100.00;101533.72;5041016;28;20071;-85
2021/12/15 11:38:45;;;;;;;85.55;33.42;;;;;;;7.54;100.00;101532.84;5041029;28;20371;-84
2021/12/15 11:41:12;;;;;;;72.90;31.67;;;;;;;7.66;100.00;101532.88;5038339;28;20052;-85
2021/12/15 11:43:42;;;;;;;80.95;32.55;;;;;;;7.65;100.00;101517.81;5058581;22;20456;-76
2021/12/15 11:46:33;;;;;;;77.68;31.50;;;;;;;7.70;100.00;101516.06;5034123;28;20099;-77
2021/12/15 11:49:06;;;;;;;73.03;32.05;;;;;;;7.70;100.00;101512.50;5034498;28;20033;-77
2021/12/15 11:51:44;;;;;;;71.90;31.75;;;;;;;7.67;100.00;101518.72;5034723;28;20025;-77
2021/12/15 11:54:25;;;;;;;69.40;30.95;;;;;;;7.76;100.00;101506.28;5034673;28;20037;-77
2021/12/15 11:57:04;;;;;;;72.55;32.03;;;;;;;7.68;100.00;101509.81;5033443;28;20079;-77
2021/12/15 11:59:37;;;;;;;60.03;28.00;;;;;;;7.75;100.00;101521.38;5034607;28;20107;-76
2021/12/15 12:02:33;;;;;;;64.93;28.02;;;;;;;7.86;100.00;101517.84;5037212;28;20033;-77
2021/12/15 12:05:03;;;;;;;62.55;29.80;;;;;;;7.68;100.00;101509.81;5030084;28;20114;-77
2021/12/15 12:07:38;;;;;;;67.15;30.95;;;;;;;7.70;100.00;101502.78;5033091;28;20066;-77
2021/12/15 12:10:10;;;;;;;66.10;29.25;;;;;;;7.72;100.00;101505.41;5032808;28;20025;-77
2021/12/15 12:12:41;;;;;;;72.10;30.55;;;;;;;7.76;100.00;101508.94;5032997;28;20017;-77
2021/12/15 12:15:13;;;;;;;72.30;31.48;;;;;;;7.67;100.00;101510.72;5034866;28;20027;-76
2021/12/15 12:17:40;;;;;;;71.70;31.55;;;;;;;7.71;100.00;101514.25;5035053;28;20489;-76
2021/12/15 12:20:15;;;;;;;69.15;31.20;;;;;;;7.66;100.00;101519.56;5034748;28;20029;-76
2021/12/15 12:22:43;;;;;;;66.63;28.38;;;;;;;7.68;100.00;101509.81;5034919;28;20371;-76